sensor_id;sensor_type;location;lat;lon;timestamp;pressure;altitude;pressure_sealevel;temperature;humidity
10988;BME280;5547;42.672;23.230;2023-08-20T00:01:43;93487.34;;;16.26;100.00
10988;BME280;5547;42.672;23.230;2023-08-20T00:04:46;93587.25;;;16.77;100.00
10988;BME280;5547;42.672;23.230;2023-08-20T00:07:48;93555.31;;;16.57;100.00
10988;BME280;5547;42.672;23.230;2023-08-20T00:10:49;93575.13;;;16.73;100.00
10988;BME280;5547;42.672;23.230;2023-08-20T00:13:49;93591.09;;;16.76;100.00
10988;BME280;5547;42.672;23.230;2023-08-20T00:16:50;93593.72;;;16.67;100.00
10988;BME280;5547;42.672;23.230;2023-08-20T00:19:50;93587.53;;;16.57;100.00
10988;BME280;5547;42.672;23.230;2023-08-20T00:22:51;93575.91;;;16.38;100.00
10988;BME280;5547;42.672;23.230;2023-08-20T00:25:52;93568.63;;;16.26;100.00
10988;BME280;5547;42.672;23.230;2023-08-20T00:28:52;93598.84;;;16.39;100.00
10988;BME280;5547;42.672;23.230;2023-08-20T00:31:53;93579.66;;;16.28;100.00
10988;BME280;5547;42.672;23.230;2023-08-20T00:34:53;93584.41;;;16.24;100.00
10988;BME280;5547;42.672;23.230;2023-08-20T00:37:54;93585.50;;;16.27;100.00
10988;BME280;5547;42.672;23.230;2023-08-20T00:40:54;93593.31;;;16.21;100.00
10988;BME280;5547;42.672;23.230;2023-08-20T00:43:54;93588.69;;;16.22;100.00
10988;BME280;5547;42.672;23.230;2023-08-20T00:46:55;93592.09;;;16.35;100.00
10988;BME280;5547;42.672;23.230;2023-08-20T00:49:55;93584.63;;;16.52;100.00
10988;BME280;5547;42.672;23.230;2023-08-20T00:52:56;93590.88;;;16.49;100.00
10988;BME280;5547;42.672;23.230;2023-08-20T00:55:56;93587.38;;;16.39;100.00
10988;BME280;5547;42.672;23.230;2023-08-20T00:58:58;93570.69;;;16.09;100.00
10988;BME280;5547;42.672;23.230;2023-08-20T01:01:58;93565.53;;;16.15;100.00
10988;BME280;5547;42.672;23.230;2023-08-20T01:05:00;93587.28;;;16.30;100.00
10988;BME280;5547;42.672;23.230;2023-08-20T01:08:13;93589.09;;;16.33;100.00
10988;BME280;5547;42.672;23.230;2023-08-20T01:11:21;93526.81;;;16.03;100.00
10988;BME280;5547;42.672;23.230;2023-08-20T01:14:25;93572.22;;;16.45;100.00
10988;BME280;5547;42.672;23.230;2023-08-20T01:17:25;93581.50;;;16.66;100.00
10988;BME280;5547;42.672;23.230;2023-08-20T01:20:30;93593.78;;;16.76;100.00
10988;BME280;5547;42.672;23.230;2023-08-20T01:30:05;93569.59;;;16.89;100.00
10988;BME280;5547;42.672;23.230;2023-08-20T01:33:06;93593.94;;;16.95;100.00
10988;BME280;5547;42.672;23.230;2023-08-20T01:36:07;93584.88;;;17.01;100.00
10988;BME280;5547;42.672;23.230;2023-08-20T01:39:09;93578.19;;;17.06;100.00
10988;BME280;5547;42.672;23.230;2023-08-20T01:42:10;93585.09;;;17.16;100.00
10988;BME280;5547;42.672;23.230;2023-08-20T01:45:10;93557.75;;;17.09;100.00
10988;BME280;5547;42.672;23.230;2023-08-20T01:48:11;93576.31;;;17.16;100.00
10988;BME280;5547;42.672;23.230;2023-08-20T01:51:11;93582.44;;;16.94;100.00
10988;BME280;5547;42.672;23.230;2023-08-20T01:54:11;93576.69;;;16.83;100.00
10988;BME280;5547;42.672;23.230;2023-08-20T01:57:12;93570.03;;;16.75;100.00
10988;BME280;5547;42.672;23.230;2023-08-20T02:00:13;93529.88;;;16.27;100.00
10988;BME280;5547;42.672;23.230;2023-08-20T02:03:13;93529.38;;;16.42;100.00
10988;BME280;5547;42.672;23.230;2023-08-20T02:06:14;93450.78;;;15.97;100.00
10988;BME280;5547;42.672;23.230;2023-08-20T02:09:14;93559.44;;;16.71;100.00
10988;BME280;5547;42.672;23.230;2023-08-20T02:12:15;93536.38;;;16.61;100.00
10988;BME280;5547;42.672;23.230;2023-08-20T02:15:15;93508.22;;;16.44;100.00
10988;BME280;5547;42.672;23.230;2023-08-20T02:18:15;93552.53;;;16.83;100.00
10988;BME280;5547;42.672;23.230;2023-08-20T02:21:17;93556.50;;;16.78;100.00
10988;BME280;5547;42.672;23.230;2023-08-20T02:24:17;93539.44;;;16.50;100.00
10988;BME280;5547;42.672;23.230;2023-08-20T02:27:17;93566.78;;;16.58;100.00
10988;BME280;5547;42.672;23.230;2023-08-20T02:30:18;93564.75;;;16.62;100.00
10988;BME280;5547;42.672;23.230;2023-08-20T02:33:18;93513.25;;;16.20;100.00
10988;BME280;5547;42.672;23.230;2023-08-20T02:36:19;93560.53;;;16.39;100.00
10988;BME280;5547;42.672;23.230;2023-08-20T02:39:20;93554.19;;;16.46;100.00
10988;BME280;5547;42.672;23.230;2023-08-20T02:42:20;93560.63;;;16.35;100.00
10988;BME280;5547;42.672;23.230;2023-08-20T02:45:21;93567.88;;;16.26;100.00
10988;BME280;5547;42.672;23.230;2023-08-20T02:48:21;93565.84;;;16.17;100.00
10988;BME280;5547;42.672;23.230;2023-08-20T02:51:27;93568.66;;;16.13;100.00
10988;BME280;5547;42.672;23.230;2023-08-20T02:54:27;93565.59;;;16.24;100.00
10988;BME280;5547;42.672;23.230;2023-08-20T02:57:29;93551.03;;;16.12;100.00
10988;BME280;5547;42.672;23.230;2023-08-20T03:00:30;93538.78;;;15.77;100.00
10988;BME280;5547;42.672;23.230;2023-08-20T03:03:31;93577.81;;;15.78;100.00
10988;BME280;5547;42.672;23.230;2023-08-20T03:06:31;93531.09;;;15.27;100.00
10988;BME280;5547;42.672;23.230;2023-08-20T03:09:32;93527.31;;;15.25;100.00
10988;BME280;5547;42.672;23.230;2023-08-20T03:12:32;93576.22;;;15.42;100.00
10988;BME280;5547;42.672;23.230;2023-08-20T03:15:33;93505.13;;;14.86;100.00
10988;BME280;5547;42.672;23.230;2023-08-20T03:18:33;93490.94;;;14.85;100.00
10988;BME280;5547;42.672;23.230;2023-08-20T03:21:33;93559.81;;;15.40;100.00
10988;BME280;5547;42.672;23.230;2023-08-20T03:24:34;93569.03;;;15.51;100.00
10988;BME280;5547;42.672;23.230;2023-08-20T03:27:34;93566.03;;;15.37;100.00
10988;BME280;5547;42.672;23.230;2023-08-20T03:30:36;93565.38;;;15.45;100.00
10988;BME280;5547;42.672;23.230;2023-08-20T03:33:36;93572.03;;;15.53;100.00
10988;BME280;5547;42.672;23.230;2023-08-20T03:36:37;93562.69;;;15.45;100.00
10988;BME280;5547;42.672;23.230;2023-08-20T03:39:38;93557.97;;;15.24;100.00
10988;BME280;5547;42.672;23.230;2023-08-20T03:42:38;93531.94;;;15.11;100.00
10988;BME280;5547;42.672;23.230;2023-08-20T03:45:38;93534.59;;;15.11;100.00
10988;BME280;5547;42.672;23.230;2023-08-20T03:48:39;93484.06;;;14.71;100.00
10988;BME280;5547;42.672;23.230;2023-08-20T03:51:39;93536.31;;;15.05;100.00
10988;BME280;5547;42.672;23.230;2023-08-20T03:54:41;93551.88;;;15.23;100.00
10988;BME280;5547;42.672;23.230;2023-08-20T03:57:41;93533.75;;;15.15;100.00
10988;BME280;5547;42.672;23.230;2023-08-20T04:00:43;93519.16;;;15.16;100.00
10988;BME280;5547;42.672;23.230;2023-08-20T04:03:45;93555.19;;;15.40;100.00
10988;BME280;5547;42.672;23.230;2023-08-20T04:06:46;93552.63;;;15.62;100.00
10988;BME280;5547;42.672;23.230;2023-08-20T04:09:46;93552.31;;;15.73;100.00
10988;BME280;5547;42.672;23.230;2023-08-20T04:12:47;93541.44;;;15.89;100.00
10988;BME280;5547;42.672;23.230;2023-08-20T04:15:47;93518.16;;;15.99;100.00
10988;BME280;5547;42.672;23.230;2023-08-20T04:18:47;93552.59;;;16.35;100.00
10988;BME280;5547;42.672;23.230;2023-08-20T04:21:48;93553.19;;;16.52;100.00
10988;BME280;5547;42.672;23.230;2023-08-20T04:24:48;93557.81;;;16.74;100.00
10988;BME280;5547;42.672;23.230;2023-08-20T04:27:48;93562.31;;;16.99;100.00
10988;BME280;5547;42.672;23.230;2023-08-20T04:30:52;93567.72;;;17.30;100.00
10988;BME280;5547;42.672;23.230;2023-08-20T04:33:54;93563.34;;;17.55;100.00
10988;BME280;5547;42.672;23.230;2023-08-20T04:36:54;93565.72;;;17.84;100.00
10988;BME280;5547;42.672;23.230;2023-08-20T04:39:55;93532.75;;;17.71;100.00
10988;BME280;5547;42.672;23.230;2023-08-20T04:42:55;93575.97;;;18.26;100.00
10988;BME280;5547;42.672;23.230;2023-08-20T04:45:56;93514.91;;;18.04;100.00
10988;BME280;5547;42.672;23.230;2023-08-20T04:48:56;93572.72;;;18.86;100.00
10988;BME280;5547;42.672;23.230;2023-08-20T04:51:56;93578.47;;;19.22;100.00
10988;BME280;5547;42.672;23.230;2023-08-20T04:54:57;93580.31;;;19.58;100.00
10988;BME280;5547;42.672;23.230;2023-08-20T04:57:57;93580.00;;;19.75;100.00
10988;BME280;5547;42.672;23.230;2023-08-20T05:00:57;93571.25;;;19.80;100.00
10988;BME280;5547;42.672;23.230;2023-08-20T05:03:58;93585.75;;;19.91;100.00
10988;BME280;5547;42.672;23.230;2023-08-20T05:06:58;93572.59;;;19.84;100.00
10988;BME280;5547;42.672;23.230;2023-08-20T05:09:59;93586.69;;;19.88;100.00
10988;BME280;5547;42.672;23.230;2023-08-20T05:12:59;93582.25;;;20.00;100.00
10988;BME280;5547;42.672;23.230;2023-08-20T05:15:59;93555.16;;;19.94;100.00
10988;BME280;5547;42.672;23.230;2023-08-20T05:19:00;93578.25;;;20.68;100.00
10988;BME280;5547;42.672;23.230;2023-08-20T05:22:00;93584.47;;;21.13;100.00
10988;BME280;5547;42.672;23.230;2023-08-20T05:25:01;93583.53;;;21.01;100.00
10988;BME280;5547;42.672;23.230;2023-08-20T05:28:01;93598.09;;;21.33;100.00
10988;BME280;5547;42.672;23.230;2023-08-20T05:31:01;93609.59;;;21.58;100.00
10988;BME280;5547;42.672;23.230;2023-08-20T05:34:02;93609.13;;;21.59;100.00
10988;BME280;5547;42.672;23.230;2023-08-20T05:37:03;93612.19;;;22.17;100.00
10988;BME280;5547;42.672;23.230;2023-08-20T05:40:06;93604.28;;;21.99;100.00
10988;BME280;5547;42.672;23.230;2023-08-20T05:43:09;93591.53;;;21.85;100.00
10988;BME280;5547;42.672;23.230;2023-08-20T05:46:10;93605.81;;;22.20;100.00
10988;BME280;5547;42.672;23.230;2023-08-20T05:49:10;93592.88;;;22.45;100.00
10988;BME280;5547;42.672;23.230;2023-08-20T05:52:10;93609.81;;;22.60;100.00
10988;BME280;5547;42.672;23.230;2023-08-20T05:55:11;93615.84;;;22.50;100.00
10988;BME280;5547;42.672;23.230;2023-08-20T05:58:11;93603.84;;;22.77;100.00
10988;BME280;5547;42.672;23.230;2023-08-20T06:01:12;93599.38;;;22.53;100.00
10988;BME280;5547;42.672;23.230;2023-08-20T06:04:12;93620.25;;;23.09;100.00
10988;BME280;5547;42.672;23.230;2023-08-20T06:07:12;93593.53;;;23.01;100.00
10988;BME280;5547;42.672;23.230;2023-08-20T06:10:13;93617.06;;;23.36;100.00
10988;BME280;5547;42.672;23.230;2023-08-20T06:13:13;93609.81;;;23.01;99.35
10988;BME280;5547;42.672;23.230;2023-08-20T06:16:14;93618.22;;;23.56;95.52
10988;BME280;5547;42.672;23.230;2023-08-20T06:19:14;93620.72;;;23.91;90.68
10988;BME280;5547;42.672;23.230;2023-08-20T06:22:14;93570.81;;;23.57;89.42
10988;BME280;5547;42.672;23.230;2023-08-20T06:25:15;93604.13;;;23.83;92.05
10988;BME280;5547;42.672;23.230;2023-08-20T06:28:16;93626.78;;;24.06;89.08
10988;BME280;5547;42.672;23.230;2023-08-20T06:31:16;93610.56;;;24.23;93.33
10988;BME280;5547;42.672;23.230;2023-08-20T06:34:16;93629.72;;;24.46;87.41
10988;BME280;5547;42.672;23.230;2023-08-20T06:37:17;93604.03;;;24.47;87.61
10988;BME280;5547;42.672;23.230;2023-08-20T06:40:17;93617.41;;;24.50;89.70
10988;BME280;5547;42.672;23.230;2023-08-20T06:43:18;93622.38;;;24.52;84.57
10988;BME280;5547;42.672;23.230;2023-08-20T06:46:18;93634.25;;;24.60;84.30
10988;BME280;5547;42.672;23.230;2023-08-20T06:49:18;93634.16;;;24.43;81.92
10988;BME280;5547;42.672;23.230;2023-08-20T06:52:19;93554.06;;;24.39;81.67
10988;BME280;5547;42.672;23.230;2023-08-20T06:55:19;93630.53;;;24.58;81.83
10988;BME280;5547;42.672;23.230;2023-08-20T06:58:20;93628.91;;;24.77;79.92
10988;BME280;5547;42.672;23.230;2023-08-20T07:01:20;93632.41;;;24.89;80.69
10988;BME280;5547;42.672;23.230;2023-08-20T07:04:20;93633.88;;;24.84;77.51
10988;BME280;5547;42.672;23.230;2023-08-20T07:07:21;93624.84;;;24.56;78.54
10988;BME280;5547;42.672;23.230;2023-08-20T07:10:22;93624.94;;;24.72;78.34
10988;BME280;5547;42.672;23.230;2023-08-20T07:13:23;93644.81;;;25.01;74.34
10988;BME280;5547;42.672;23.230;2023-08-20T07:16:23;93615.97;;;25.26;72.38
10988;BME280;5547;42.672;23.230;2023-08-20T07:19:23;93632.09;;;25.64;68.87
10988;BME280;5547;42.672;23.230;2023-08-20T07:22:24;93631.09;;;25.78;67.47
10988;BME280;5547;42.672;23.230;2023-08-20T07:25:24;93641.50;;;25.85;65.24
10988;BME280;5547;42.672;23.230;2023-08-20T07:28:25;93636.59;;;25.89;64.68
10988;BME280;5547;42.672;23.230;2023-08-20T07:31:48;93622.94;;;26.06;61.92
10988;BME280;5547;42.672;23.230;2023-08-20T07:34:48;93631.38;;;26.14;63.22
10988;BME280;5547;42.672;23.230;2023-08-20T07:37:49;93641.97;;;26.46;63.12
10988;BME280;5547;42.672;23.230;2023-08-20T07:40:49;93578.38;;;25.87;61.60
10988;BME280;5547;42.672;23.230;2023-08-20T07:43:49;93613.78;;;25.70;59.89
10988;BME280;5547;42.672;23.230;2023-08-20T07:46:50;93620.69;;;25.43;61.36
10988;BME280;5547;42.672;23.230;2023-08-20T07:49:50;93647.91;;;25.48;63.71
10988;BME280;5547;42.672;23.230;2023-08-20T07:52:51;93595.41;;;25.25;63.42
10988;BME280;5547;42.672;23.230;2023-08-20T07:55:51;93654.91;;;26.17;59.65
10988;BME280;5547;42.672;23.230;2023-08-20T07:58:52;93556.56;;;25.42;62.40
10988;BME280;5547;42.672;23.230;2023-08-20T08:01:52;93637.53;;;25.81;59.81
10988;BME280;5547;42.672;23.230;2023-08-20T08:04:52;93630.84;;;26.27;59.87
10988;BME280;5547;42.672;23.230;2023-08-20T08:07:53;93604.06;;;26.31;55.43
10988;BME280;5547;42.672;23.230;2023-08-20T08:10:53;93640.25;;;26.31;58.64
10988;BME280;5547;42.672;23.230;2023-08-20T08:13:54;93626.56;;;26.54;57.44
10988;BME280;5547;42.672;23.230;2023-08-20T08:16:54;93636.56;;;26.34;55.46
10988;BME280;5547;42.672;23.230;2023-08-20T08:19:55;93652.66;;;26.44;57.24
10988;BME280;5547;42.672;23.230;2023-08-20T08:22:55;93637.03;;;26.27;54.06
10988;BME280;5547;42.672;23.230;2023-08-20T08:25:56;93623.91;;;26.20;54.14
10988;BME280;5547;42.672;23.230;2023-08-20T08:28:56;93561.72;;;26.13;53.34
10988;BME280;5547;42.672;23.230;2023-08-20T08:31:57;93652.38;;;26.53;51.70
10988;BME280;5547;42.672;23.230;2023-08-20T08:34:58;93653.59;;;26.52;51.56
10988;BME280;5547;42.672;23.230;2023-08-20T08:37:58;93644.22;;;26.41;50.87
10988;BME280;5547;42.672;23.230;2023-08-20T08:41:00;93615.75;;;25.86;52.65
10988;BME280;5547;42.672;23.230;2023-08-20T08:44:01;93644.75;;;26.23;50.37
10988;BME280;5547;42.672;23.230;2023-08-20T08:47:02;93650.66;;;26.44;50.10
10988;BME280;5547;42.672;23.230;2023-08-20T08:50:05;93649.47;;;26.06;50.07
10988;BME280;5547;42.672;23.230;2023-08-20T08:53:07;93632.56;;;26.47;53.04
10988;BME280;5547;42.672;23.230;2023-08-20T08:56:07;93645.19;;;26.44;48.67
10988;BME280;5547;42.672;23.230;2023-08-20T08:59:08;93641.53;;;26.08;49.80
10988;BME280;5547;42.672;23.230;2023-08-20T09:02:10;93607.59;;;26.03;50.25
10988;BME280;5547;42.672;23.230;2023-08-20T09:05:13;93635.06;;;26.28;49.70
10988;BME280;5547;42.672;23.230;2023-08-20T09:11:21;93603.31;;;26.41;46.94
10988;BME280;5547;42.672;23.230;2023-08-20T09:14:28;93637.53;;;26.31;48.84
10988;BME280;5547;42.672;23.230;2023-08-20T09:17:29;93654.63;;;26.60;47.53
10988;BME280;5547;42.672;23.230;2023-08-20T09:20:34;93633.03;;;26.45;50.35
10988;BME280;5547;42.672;23.230;2023-08-20T09:23:35;93603.97;;;26.76;49.25
10988;BME280;5547;42.672;23.230;2023-08-20T09:26:36;93655.25;;;26.89;45.61
10988;BME280;5547;42.672;23.230;2023-08-20T09:29:47;93630.06;;;26.54;47.73
10988;BME280;5547;42.672;23.230;2023-08-20T09:33:03;93650.84;;;26.74;45.95
10988;BME280;5547;42.672;23.230;2023-08-20T09:36:04;93632.56;;;26.58;47.20
10988;BME280;5547;42.672;23.230;2023-08-20T09:39:05;93640.25;;;27.12;49.13
10988;BME280;5547;42.672;23.230;2023-08-20T09:42:06;93632.91;;;26.96;44.78
10988;BME280;5547;42.672;23.230;2023-08-20T09:45:07;93615.34;;;26.86;44.41
10988;BME280;5547;42.672;23.230;2023-08-20T09:48:09;93635.88;;;26.98;45.53
10988;BME280;5547;42.672;23.230;2023-08-20T09:51:11;93588.63;;;26.67;43.69
10988;BME280;5547;42.672;23.230;2023-08-20T09:54:36;93615.81;;;26.90;44.38
10988;BME280;5547;42.672;23.230;2023-08-20T09:57:39;93639.28;;;27.15;42.48
10988;BME280;5547;42.672;23.230;2023-08-20T10:00:40;93601.38;;;27.00;44.58
10988;BME280;5547;42.672;23.230;2023-08-20T10:03:41;93638.75;;;27.22;44.39
10988;BME280;5547;42.672;23.230;2023-08-20T10:06:43;93612.28;;;27.06;42.93
10988;BME280;5547;42.672;23.230;2023-08-20T10:09:44;93634.72;;;27.35;44.79
10988;BME280;5547;42.672;23.230;2023-08-20T10:12:46;93634.28;;;27.61;45.03
10988;BME280;5547;42.672;23.230;2023-08-20T10:15:48;93645.06;;;27.48;42.66
10988;BME280;5547;42.672;23.230;2023-08-20T10:18:50;93610.69;;;27.28;42.12
10988;BME280;5547;42.672;23.230;2023-08-20T10:21:53;93616.25;;;27.47;43.17
10988;BME280;5547;42.672;23.230;2023-08-20T10:24:54;93641.91;;;27.74;43.66
10988;BME280;5547;42.672;23.230;2023-08-20T10:28:12;93600.19;;;26.85;43.09
10988;BME280;5547;42.672;23.230;2023-08-20T10:31:16;93626.16;;;27.02;43.27
10988;BME280;5547;42.672;23.230;2023-08-20T10:34:32;93633.56;;;27.60;41.44
10988;BME280;5547;42.672;23.230;2023-08-20T10:37:35;93625.03;;;27.70;40.07
10988;BME280;5547;42.672;23.230;2023-08-20T10:40:52;93608.50;;;27.56;39.41
10988;BME280;5547;42.672;23.230;2023-08-20T10:43:58;93600.50;;;27.64;40.11
10988;BME280;5547;42.672;23.230;2023-08-20T10:46:58;93601.31;;;27.53;40.06
10988;BME280;5547;42.672;23.230;2023-08-20T10:50:00;93553.88;;;27.20;41.37
10988;BME280;5547;42.672;23.230;2023-08-20T10:53:03;93619.22;;;27.49;40.98
10988;BME280;5547;42.672;23.230;2023-08-20T10:56:08;93604.63;;;27.76;40.62
10988;BME280;5547;42.672;23.230;2023-08-20T10:59:15;93623.41;;;27.91;40.30
10988;BME280;5547;42.672;23.230;2023-08-20T11:02:16;93616.47;;;27.90;41.15
10988;BME280;5547;42.672;23.230;2023-08-20T11:05:18;93618.53;;;27.78;40.69
10988;BME280;5547;42.672;23.230;2023-08-20T11:08:19;93606.78;;;28.19;40.82
10988;BME280;5547;42.672;23.230;2023-08-20T11:11:22;93603.72;;;27.98;41.80
10988;BME280;5547;42.672;23.230;2023-08-20T11:14:23;93602.25;;;27.97;41.97
10988;BME280;5547;42.672;23.230;2023-08-20T11:17:24;93604.59;;;28.12;38.76
10988;BME280;5547;42.672;23.230;2023-08-20T11:20:24;93597.06;;;28.18;40.09
10988;BME280;5547;42.672;23.230;2023-08-20T11:23:25;93565.47;;;27.98;38.54
10988;BME280;5547;42.672;23.230;2023-08-20T11:26:25;93583.47;;;28.13;40.94
10988;BME280;5547;42.672;23.230;2023-08-20T11:29:26;93575.50;;;28.15;39.47
10988;BME280;5547;42.672;23.230;2023-08-20T11:32:27;93586.94;;;28.38;37.98
10988;BME280;5547;42.672;23.230;2023-08-20T11:35:28;93535.31;;;28.28;39.54
10988;BME280;5547;42.672;23.230;2023-08-20T11:38:28;93535.72;;;28.14;38.59
10988;BME280;5547;42.672;23.230;2023-08-20T11:41:30;93547.28;;;28.25;37.61
10988;BME280;5547;42.672;23.230;2023-08-20T11:44:45;93575.19;;;28.18;37.97
10988;BME280;5547;42.672;23.230;2023-08-20T11:47:45;93592.63;;;28.64;39.43
10988;BME280;5547;42.672;23.230;2023-08-20T11:50:46;93576.38;;;28.91;39.54
10988;BME280;5547;42.672;23.230;2023-08-20T11:53:47;93594.22;;;28.98;37.66
10988;BME280;5547;42.672;23.230;2023-08-20T11:56:51;93564.41;;;28.75;37.68
10988;BME280;5547;42.672;23.230;2023-08-20T11:59:52;93591.78;;;29.13;38.21
10988;BME280;5547;42.672;23.230;2023-08-20T12:02:55;93584.84;;;29.12;39.65
10988;BME280;5547;42.672;23.230;2023-08-20T12:05:56;93558.63;;;28.98;40.33
10988;BME280;5547;42.672;23.230;2023-08-20T12:08:59;93583.19;;;28.84;39.26
10988;BME280;5547;42.672;23.230;2023-08-20T12:12:00;93535.25;;;28.59;38.72
10988;BME280;5547;42.672;23.230;2023-08-20T12:15:01;93573.28;;;29.19;38.77
10988;BME280;5547;42.672;23.230;2023-08-20T12:18:03;93568.69;;;29.27;39.22
10988;BME280;5547;42.672;23.230;2023-08-20T12:21:04;93479.97;;;28.60;38.40
10988;BME280;5547;42.672;23.230;2023-08-20T12:24:05;93569.56;;;29.36;39.28
10988;BME280;5547;42.672;23.230;2023-08-20T12:27:06;93557.00;;;29.27;39.00
10988;BME280;5547;42.672;23.230;2023-08-20T12:30:06;93565.97;;;29.60;40.00
10988;BME280;5547;42.672;23.230;2023-08-20T12:33:07;93563.03;;;29.39;39.07
10988;BME280;5547;42.672;23.230;2023-08-20T12:36:07;93494.94;;;28.78;39.42
10988;BME280;5547;42.672;23.230;2023-08-20T12:39:08;93548.19;;;28.77;42.56
10988;BME280;5547;42.672;23.230;2023-08-20T12:42:08;93552.03;;;28.68;40.13
10988;BME280;5547;42.672;23.230;2023-08-20T12:45:09;93514.53;;;28.63;40.60
10988;BME280;5547;42.672;23.230;2023-08-20T12:48:10;93501.50;;;28.88;39.81
10988;BME280;5547;42.672;23.230;2023-08-20T12:51:11;93493.34;;;29.21;39.69
10988;BME280;5547;42.672;23.230;2023-08-20T12:54:13;93547.81;;;29.24;39.12
10988;BME280;5547;42.672;23.230;2023-08-20T12:57:14;93555.47;;;29.45;39.47
10988;BME280;5547;42.672;23.230;2023-08-20T13:00:14;93525.69;;;29.54;39.88
10988;BME280;5547;42.672;23.230;2023-08-20T13:03:15;93536.81;;;29.76;39.01
10988;BME280;5547;42.672;23.230;2023-08-20T13:06:16;93554.47;;;29.93;38.41
10988;BME280;5547;42.672;23.230;2023-08-20T13:09:16;93519.66;;;29.43;40.17
10988;BME280;5547;42.672;23.230;2023-08-20T13:12:18;93552.25;;;29.79;39.33
10988;BME280;5547;42.672;23.230;2023-08-20T13:15:20;93553.00;;;29.92;38.43
10988;BME280;5547;42.672;23.230;2023-08-20T13:18:21;93472.00;;;29.32;38.66
10988;BME280;5547;42.672;23.230;2023-08-20T13:21:25;93549.28;;;29.90;38.03
10988;BME280;5547;42.672;23.230;2023-08-20T13:24:25;93553.41;;;29.83;38.96
10988;BME280;5547;42.672;23.230;2023-08-20T13:27:25;93545.66;;;29.68;38.78
10988;BME280;5547;42.672;23.230;2023-08-20T13:30:26;93540.72;;;29.48;38.30
10988;BME280;5547;42.672;23.230;2023-08-20T13:33:26;93534.63;;;29.55;39.93
10988;BME280;5547;42.672;23.230;2023-08-20T13:36:27;93513.31;;;29.35;39.01
10988;BME280;5547;42.672;23.230;2023-08-20T13:39:27;93535.69;;;29.52;38.55
10988;BME280;5547;42.672;23.230;2023-08-20T13:42:28;93523.00;;;29.68;39.02
10988;BME280;5547;42.672;23.230;2023-08-20T13:45:28;93533.28;;;29.62;38.15
10988;BME280;5547;42.672;23.230;2023-08-20T13:48:28;93523.69;;;29.55;39.07
10988;BME280;5547;42.672;23.230;2023-08-20T13:51:29;93543.19;;;29.51;38.75
10988;BME280;5547;42.672;23.230;2023-08-20T13:54:30;93542.69;;;29.34;39.25
10988;BME280;5547;42.672;23.230;2023-08-20T13:57:31;93531.31;;;29.11;38.72
10988;BME280;5547;42.672;23.230;2023-08-20T14:00:31;93493.38;;;28.83;38.49
10988;BME280;5547;42.672;23.230;2023-08-20T14:03:31;93517.34;;;29.15;39.06
10988;BME280;5547;42.672;23.230;2023-08-20T14:06:32;93468.28;;;28.79;38.89
10988;BME280;5547;42.672;23.230;2023-08-20T14:09:33;93494.38;;;28.99;38.06
10988;BME280;5547;42.672;23.230;2023-08-20T14:12:35;93435.69;;;28.62;38.41
10988;BME280;5547;42.672;23.230;2023-08-20T14:15:35;93534.13;;;29.24;37.95
10988;BME280;5547;42.672;23.230;2023-08-20T14:18:36;93514.22;;;29.24;37.83
10988;BME280;5547;42.672;23.230;2023-08-20T14:21:37;93512.91;;;29.44;37.88
10988;BME280;5547;42.672;23.230;2023-08-20T14:24:37;93535.50;;;29.95;36.76
10988;BME280;5547;42.672;23.230;2023-08-20T14:27:38;93518.09;;;29.93;37.42
10988;BME280;5547;42.672;23.230;2023-08-20T14:30:39;93542.22;;;29.49;38.43
10988;BME280;5547;42.672;23.230;2023-08-20T14:33:39;93556.78;;;30.96;35.46
10988;BME280;5547;42.672;23.230;2023-08-20T14:36:40;93552.19;;;30.38;36.46
10988;BME280;5547;42.672;23.230;2023-08-20T14:39:40;93530.03;;;30.49;36.73
10988;BME280;5547;42.672;23.230;2023-08-20T14:42:41;93539.34;;;30.46;35.47
10988;BME280;5547;42.672;23.230;2023-08-20T14:45:42;93561.34;;;30.93;34.71
10988;BME280;5547;42.672;23.230;2023-08-20T14:48:42;93559.16;;;30.65;35.63
10988;BME280;5547;42.672;23.230;2023-08-20T14:51:43;93508.56;;;30.74;35.13
10988;BME280;5547;42.672;23.230;2023-08-20T14:54:43;93524.22;;;30.52;34.94
10988;BME280;5547;42.672;23.230;2023-08-20T14:57:44;93520.81;;;29.80;36.39
10988;BME280;5547;42.672;23.230;2023-08-20T15:00:45;93461.53;;;28.99;37.11
10988;BME280;5547;42.672;23.230;2023-08-20T15:03:45;93486.56;;;28.89;37.48
10988;BME280;5547;42.672;23.230;2023-08-20T15:06:46;93550.78;;;29.26;37.72
10988;BME280;5547;42.672;23.230;2023-08-20T15:09:46;93544.41;;;28.99;38.75
10988;BME280;5547;42.672;23.230;2023-08-20T15:12:47;93554.69;;;29.31;37.36
10988;BME280;5547;42.672;23.230;2023-08-20T15:15:51;93476.59;;;28.54;38.09
10988;BME280;5547;42.672;23.230;2023-08-20T15:18:52;93558.94;;;29.13;37.73
10988;BME280;5547;42.672;23.230;2023-08-20T15:21:53;93532.88;;;28.87;37.48
10988;BME280;5547;42.672;23.230;2023-08-20T15:24:53;93556.56;;;28.85;38.46
10988;BME280;5547;42.672;23.230;2023-08-20T15:27:53;93502.69;;;28.55;38.01
10988;BME280;5547;42.672;23.230;2023-08-20T15:30:54;93541.25;;;29.14;36.93
10988;BME280;5547;42.672;23.230;2023-08-20T15:33:54;93543.91;;;29.52;36.57
10988;BME280;5547;42.672;23.230;2023-08-20T15:36:55;93567.34;;;29.66;36.80
10988;BME280;5547;42.672;23.230;2023-08-20T15:39:55;93460.34;;;28.37;37.43
10988;BME280;5547;42.672;23.230;2023-08-20T15:42:56;93566.69;;;28.71;37.92
10988;BME280;5547;42.672;23.230;2023-08-20T15:45:57;93515.22;;;28.26;37.90
10988;BME280;5547;42.672;23.230;2023-08-20T15:48:57;93556.16;;;28.32;38.99
10988;BME280;5547;42.672;23.230;2023-08-20T15:51:57;93459.19;;;27.34;39.15
10988;BME280;5547;42.672;23.230;2023-08-20T15:54:58;93546.03;;;27.72;39.53
10988;BME280;5547;42.672;23.230;2023-08-20T15:57:59;93553.38;;;27.88;39.33
10988;BME280;5547;42.672;23.230;2023-08-20T16:00:59;93424.81;;;26.84;41.23
10988;BME280;5547;42.672;23.230;2023-08-20T16:04:00;93488.16;;;27.07;40.21